createdAt,value
2023-05-18T00:01:12.426Z,450.88
2023-05-18T00:03:39.205Z,398.35
2023-05-18T00:06:07.152Z,380.05
2023-05-18T00:08:34.582Z,407.25
2023-05-18T00:11:02.315Z,378.15
2023-05-18T00:13:29.360Z,449.70
2023-05-18T00:15:56.265Z,396.65
2023-05-18T00:18:24.805Z,438.40
2023-05-18T00:20:51.455Z,372.15
2023-05-18T00:23:18.142Z,576.72
2023-05-18T00:25:44.789Z,452.75
2023-05-18T00:28:12.658Z,372.27
2023-05-18T00:30:39.600Z,434.83
2023-05-18T00:33:06.220Z,449.55
2023-05-18T00:35:32.878Z,340.65
2023-05-18T00:37:59.601Z,342.75
2023-05-18T00:40:27.926Z,475.08
2023-05-18T00:42:54.752Z,492.73
2023-05-18T00:45:21.529Z,410.20
2023-05-18T00:47:48.672Z,350.70
2023-05-18T00:50:15.259Z,529.30
2023-05-18T00:52:42.478Z,538.85
2023-05-18T00:55:09.679Z,419.38
2023-05-18T00:57:36.751Z,344.58
2023-05-18T01:00:04.883Z,424.75
2023-05-18T01:02:31.619Z,477.13
2023-05-18T01:05:00.561Z,361.15
2023-05-18T01:07:28.182Z,319.05
2023-05-18T01:09:54.901Z,571.92
2023-05-18T01:12:27.992Z,398.25
2023-05-18T01:15:03.400Z,285.92
2023-05-18T01:17:42.056Z,320.42
2023-05-18T01:20:38.067Z,370.95
2023-05-18T01:23:42.523Z,448.58
2023-05-18T01:26:37.452Z,305.75
2023-05-18T01:29:06.940Z,293.65
2023-05-18T01:31:34.507Z,268.00
2023-05-18T01:34:02.509Z,469.38
2023-05-18T01:36:29.111Z,282.17
2023-05-18T01:39:01.338Z,501.95
2023-05-18T01:41:29.381Z,279.40
2023-05-18T01:44:19.547Z,253.57
2023-05-18T01:49:21.290Z,394.23
2023-05-18T01:51:49.915Z,270.75
2023-05-18T01:54:19.250Z,531.40
2023-05-18T01:56:47.686Z,442.73
2023-05-18T01:59:15.109Z,278.48
2023-05-18T02:01:41.779Z,468.75
2023-05-18T02:04:09.968Z,277.42
2023-05-18T02:06:37.367Z,308.17
2023-05-18T02:09:05.743Z,224.55
2023-05-18T02:11:33.372Z,205.07
2023-05-18T02:14:00.852Z,204.20
2023-05-18T02:16:27.691Z,217.15
2023-05-18T02:18:54.594Z,207.52
2023-05-18T02:21:22.091Z,187.27
2023-05-18T02:23:48.708Z,324.40
2023-05-18T02:26:15.989Z,181.70
2023-05-18T02:28:42.694Z,417.30
2023-05-18T02:31:11.634Z,174.73
2023-05-18T02:33:41.622Z,240.00
2023-05-18T02:36:14.971Z,185.10
2023-05-18T02:38:43.393Z,247.77
2023-05-18T02:41:11.244Z,234.15
2023-05-18T02:43:38.049Z,207.80
2023-05-18T02:46:04.951Z,275.73
2023-05-18T02:48:33.696Z,228.73
2023-05-18T02:51:00.316Z,428.00
2023-05-18T02:53:26.976Z,216.48
2023-05-18T02:55:59.262Z,545.35
2023-05-18T02:58:31.110Z,227.75
2023-05-18T03:01:07.828Z,429.38
2023-05-18T03:03:42.092Z,220.68
2023-05-18T03:06:10.589Z,275.77
2023-05-18T03:08:37.273Z,211.77
2023-05-18T03:11:04.252Z,386.40
2023-05-18T03:13:31.018Z,206.95
2023-05-18T03:15:58.952Z,367.13
2023-05-18T03:18:25.901Z,207.45
2023-05-18T03:20:53.943Z,230.63
2023-05-18T03:23:20.764Z,228.23
2023-05-18T03:25:55.222Z,228.82
2023-05-18T03:28:24.222Z,196.77
2023-05-18T03:30:50.970Z,275.98
2023-05-18T03:33:17.823Z,454.42
2023-05-18T03:35:46.485Z,202.93
2023-05-18T03:38:15.021Z,193.85
2023-05-18T03:40:46.199Z,97.30
2023-05-18T03:43:12.867Z,369.38
2023-05-18T03:45:41.134Z,161.57
2023-05-18T03:48:08.528Z,207.30
2023-05-18T03:50:35.910Z,180.93
2023-05-18T03:53:02.820Z,375.75
2023-05-18T03:55:29.975Z,225.98
2023-05-18T03:57:59.058Z,197.00
2023-05-18T04:00:25.692Z,246.38
2023-05-18T04:02:52.434Z,287.35
2023-05-18T04:05:23.305Z,195.15
2023-05-18T04:07:50.016Z,321.77
2023-05-18T04:10:19.522Z,276.77
2023-05-18T04:12:46.435Z,217.18
2023-05-18T04:15:14.701Z,333.55
2023-05-18T04:17:45.457Z,228.90
2023-05-18T04:20:13.905Z,399.52
2023-05-18T04:22:46.583Z,220.23
2023-05-18T04:25:16.454Z,328.65
2023-05-18T04:27:45.462Z,224.77
2023-05-18T04:30:13.561Z,349.58
2023-05-18T04:32:42.894Z,234.30
2023-05-18T04:35:11.447Z,446.02
2023-05-18T04:37:40.380Z,232.48
2023-05-18T04:40:13.254Z,322.25
2023-05-18T04:42:47.935Z,232.48
2023-05-18T04:45:19.360Z,349.83
2023-05-18T04:47:47.888Z,240.93
2023-05-18T04:50:18.049Z,391.55
2023-05-18T04:52:49.208Z,220.63
2023-05-18T04:55:23.197Z,349.55
2023-05-18T04:57:50.737Z,227.50
2023-05-18T05:00:18.156Z,348.48
2023-05-18T05:02:45.079Z,209.68
2023-05-18T05:05:12.388Z,382.10
2023-05-18T05:07:39.210Z,248.43
2023-05-18T05:10:06.584Z,275.77
2023-05-18T05:12:33.375Z,281.55
2023-05-18T05:14:59.996Z,239.55
2023-05-18T05:17:26.704Z,303.60
2023-05-18T05:19:53.471Z,258.83
2023-05-18T05:22:20.406Z,305.73
2023-05-18T05:24:47.355Z,211.80
2023-05-18T05:27:14.275Z,249.07
2023-05-18T05:29:42.915Z,218.77
2023-05-18T05:32:09.712Z,228.43
2023-05-18T05:34:37.628Z,332.05
2023-05-18T05:37:05.374Z,234.50
2023-05-18T05:39:32.402Z,266.83
2023-05-18T05:41:59.878Z,255.63
2023-05-18T05:44:27.059Z,246.77
2023-05-18T05:46:54.381Z,292.63
2023-05-18T05:49:21.282Z,262.05
2023-05-18T05:51:48.787Z,218.57
2023-05-18T05:54:15.890Z,277.58
2023-05-18T05:56:44.499Z,244.02
2023-05-18T05:59:11.768Z,241.65
2023-05-18T06:01:38.843Z,219.43
2023-05-18T06:04:10.564Z,284.98
2023-05-18T06:06:38.663Z,249.35
2023-05-18T06:09:06.485Z,283.58
2023-05-18T06:11:33.543Z,411.83
2023-05-18T06:14:00.295Z,237.32
2023-05-18T06:16:27.397Z,500.48
2023-05-18T06:18:54.359Z,236.60
2023-05-18T06:21:21.196Z,323.63
2023-05-18T06:23:47.972Z,240.55
2023-05-18T06:26:41.449Z,265.83
2023-05-18T06:29:17.050Z,271.02
2023-05-18T06:32:02.423Z,255.45
2023-05-18T06:34:35.488Z,302.48
2023-05-18T06:37:02.172Z,264.35
2023-05-18T06:39:28.805Z,401.40
2023-05-18T06:41:55.468Z,265.10
2023-05-18T06:44:25.652Z,295.35
2023-05-18T06:47:14.943Z,261.55
2023-05-18T06:49:41.950Z,270.67
2023-05-18T06:52:11.694Z,231.35
2023-05-18T06:54:38.559Z,273.98
2023-05-18T06:57:06.190Z,245.60
2023-05-18T06:59:34.558Z,313.38
2023-05-18T07:02:01.385Z,237.68
2023-05-18T07:04:29.628Z,257.17
2023-05-18T07:06:56.376Z,224.65
2023-05-18T07:09:24.006Z,313.38
2023-05-18T07:11:50.916Z,243.82
2023-05-18T07:14:17.696Z,293.77
2023-05-18T07:16:47.000Z,279.40
2023-05-18T07:19:14.460Z,258.45
2023-05-18T07:21:41.308Z,282.60
2023-05-18T07:24:08.407Z,253.15
2023-05-18T07:26:35.111Z,409.17
2023-05-18T07:29:01.710Z,255.88
2023-05-18T07:31:28.370Z,322.27
2023-05-18T07:33:55.092Z,254.32
2023-05-18T07:36:22.045Z,268.88
2023-05-18T07:38:54.729Z,242.10
2023-05-18T07:41:22.912Z,308.02
2023-05-18T07:43:50.869Z,255.18
2023-05-18T07:46:17.776Z,247.93
2023-05-18T07:48:45.266Z,235.75
2023-05-18T07:51:12.545Z,224.00
2023-05-18T07:53:40.813Z,350.33
2023-05-18T07:56:08.490Z,217.93
2023-05-18T07:58:36.282Z,258.15
2023-05-18T08:01:03.069Z,211.10
2023-05-18T08:03:29.829Z,287.27
2023-05-18T08:05:56.828Z,494.42
2023-05-18T08:08:24.334Z,247.85
2023-05-18T08:10:51.969Z,262.52
2023-05-18T08:13:18.725Z,247.57
2023-05-18T08:15:50.919Z,265.98
2023-05-18T08:18:23.018Z,245.25
2023-05-18T08:20:49.625Z,289.35
2023-05-18T08:23:16.218Z,264.83
2023-05-18T08:25:42.781Z,248.23
2023-05-18T08:28:09.405Z,243.35
2023-05-18T08:30:36.117Z,255.57
2023-05-18T08:33:03.140Z,289.95
2023-05-18T08:35:30.077Z,272.73
2023-05-18T08:37:57.572Z,491.45
2023-05-18T08:40:26.600Z,265.30
2023-05-18T08:43:18.981Z,332.17
2023-05-18T08:45:54.561Z,294.70
2023-05-18T08:48:24.524Z,263.02
2023-05-18T08:50:56.564Z,332.13
2023-05-18T08:53:24.674Z,273.52
2023-05-18T08:55:54.191Z,503.40
2023-05-18T08:58:23.877Z,293.48
2023-05-18T09:00:54.281Z,407.10
2023-05-18T09:03:21.960Z,264.93
2023-05-18T09:05:49.123Z,428.58
2023-05-18T09:08:15.736Z,280.27
2023-05-18T09:10:42.524Z,378.13
2023-05-18T09:13:09.920Z,258.50
2023-05-18T09:15:36.533Z,255.65
2023-05-18T09:18:03.857Z,279.40
2023-05-18T09:20:31.428Z,251.25
2023-05-18T09:22:59.314Z,282.17
2023-05-18T09:25:27.348Z,257.23
2023-05-18T09:27:55.672Z,321.05
2023-05-18T09:30:22.460Z,310.10
2023-05-18T09:32:49.572Z,268.52
2023-05-18T09:35:16.406Z,502.08
2023-05-18T09:37:43.488Z,288.13
2023-05-18T09:40:10.706Z,558.80
2023-05-18T09:42:42.366Z,387.48
2023-05-18T09:45:26.698Z,560.17
2023-05-18T09:47:53.696Z,497.60
2023-05-18T09:50:21.451Z,569.90
2023-05-18T09:52:49.373Z,452.85
2023-05-18T09:55:17.439Z,532.55
2023-05-18T09:57:46.158Z,524.53
2023-05-18T10:00:17.050Z,502.75
2023-05-18T10:02:48.890Z,470.83
2023-05-18T10:05:22.529Z,498.90
2023-05-18T10:07:51.103Z,434.02
2023-05-18T10:10:22.241Z,513.83
2023-05-18T10:12:51.409Z,435.38
2023-05-18T10:15:22.076Z,516.10
2023-05-18T10:17:50.867Z,441.40
2023-05-18T10:20:19.350Z,509.23
2023-05-18T10:22:47.596Z,471.92
2023-05-18T10:25:19.961Z,495.35
2023-05-18T10:27:48.432Z,472.98
2023-05-18T10:30:15.252Z,485.75
2023-05-18T10:32:42.836Z,461.15
2023-05-18T10:35:10.591Z,511.13
2023-05-18T10:37:39.923Z,506.95
2023-05-18T10:40:11.616Z,486.67
2023-05-18T10:42:38.346Z,486.58
2023-05-18T10:45:06.778Z,466.00
2023-05-18T10:47:36.029Z,513.28
2023-05-18T10:50:04.316Z,498.65
2023-05-18T10:52:32.023Z,430.92
2023-05-18T10:55:00.548Z,497.77
2023-05-18T10:57:37.180Z,449.25
2023-05-18T11:00:07.671Z,607.60
2023-05-18T11:02:35.164Z,442.53
2023-05-18T11:05:07.694Z,474.27
2023-05-18T11:07:35.785Z,419.00
2023-05-18T11:10:04.166Z,445.02
2023-05-18T11:12:32.854Z,397.73
2023-05-18T11:15:01.474Z,647.28
2023-05-18T11:17:31.146Z,485.67
2023-05-18T11:20:11.702Z,547.78
2023-05-18T11:22:52.456Z,480.87
2023-05-18T11:25:25.448Z,678.35
2023-05-18T11:28:13.300Z,659.78
2023-05-18T11:30:42.568Z,633.17
2023-05-18T11:33:13.734Z,643.00
2023-05-18T11:38:56.151Z,622.30
2023-05-18T11:41:29.364Z,633.47
2023-05-18T11:44:22.270Z,650.85
2023-05-18T11:47:04.650Z,667.50
2023-05-18T11:49:38.524Z,609.70
2023-05-18T11:52:06.615Z,640.63
2023-05-18T11:54:53.104Z,607.70
2023-05-18T11:57:40.616Z,623.28
2023-05-18T12:00:10.264Z,712.03
2023-05-18T12:02:43.379Z,628.40
2023-05-18T12:05:10.765Z,711.50
2023-05-18T12:07:38.841Z,649.03
2023-05-18T12:10:11.623Z,710.00
2023-05-18T12:12:39.538Z,651.70
2023-05-18T12:15:07.836Z,715.95
2023-05-18T12:17:42.000Z,725.30
2023-05-18T12:20:13.062Z,706.80
2023-05-18T12:22:40.798Z,803.38
2023-05-18T12:25:08.092Z,702.45
2023-05-18T12:27:42.634Z,679.85
2023-05-18T12:30:11.903Z,692.00
2023-05-18T12:32:38.654Z,640.92
2023-05-18T12:35:07.086Z,618.78
2023-05-18T12:37:44.345Z,648.28
2023-05-18T12:40:16.317Z,666.00
2023-05-18T12:45:33.067Z,609.97
2023-05-18T12:48:12.982Z,603.08
2023-05-18T12:50:46.702Z,791.05
2023-05-18T12:53:13.555Z,616.28
2023-05-18T12:55:40.208Z,748.85
2023-05-18T12:58:15.726Z,629.97
2023-05-18T13:00:46.575Z,663.55
2023-05-18T13:03:16.020Z,619.47
2023-05-18T13:05:47.339Z,782.20
2023-05-18T13:08:22.044Z,618.40
2023-05-18T13:10:55.558Z,639.88
2023-05-18T13:13:32.721Z,640.85
2023-05-18T13:15:59.571Z,619.55
2023-05-18T13:18:27.620Z,664.55
2023-05-18T13:20:58.450Z,624.95
2023-05-18T13:23:27.921Z,639.47
2023-05-18T13:25:57.406Z,639.90
2023-05-18T13:28:24.955Z,640.05
2023-05-18T13:30:51.686Z,644.10
2023-05-18T13:33:19.075Z,638.40
2023-05-18T13:35:46.396Z,656.92
2023-05-18T13:38:13.998Z,635.55
2023-05-18T13:40:41.582Z,671.95
2023-05-18T13:43:10.258Z,624.85
2023-05-18T13:45:39.110Z,725.67
2023-05-18T13:48:09.420Z,622.85
2023-05-18T13:50:37.485Z,821.42
2023-05-18T13:53:04.506Z,629.03
2023-05-18T13:55:35.349Z,674.95
2023-05-18T14:00:29.557Z,630.17
2023-05-18T14:02:57.057Z,617.85
2023-05-18T14:05:24.328Z,623.85
2023-05-18T14:07:54.096Z,649.45
2023-05-18T14:10:20.927Z,838.15
2023-05-18T14:12:47.509Z,631.55
2023-05-18T14:15:15.072Z,753.03
2023-05-18T14:17:42.815Z,631.00
2023-05-18T14:20:10.572Z,705.30
2023-05-18T14:22:37.213Z,680.92
2023-05-18T14:25:04.128Z,621.83
2023-05-18T14:27:31.045Z,655.90
2023-05-18T14:29:58.363Z,621.38
2023-05-18T14:32:24.967Z,626.28
2023-05-18T14:34:54.127Z,626.55
2023-05-18T14:37:20.829Z,620.63
2023-05-18T14:39:48.068Z,619.25
2023-05-18T14:42:14.877Z,710.33
2023-05-18T14:44:41.472Z,618.35
2023-05-18T14:47:08.154Z,654.10
2023-05-18T14:49:34.849Z,621.63
2023-05-18T14:52:01.446Z,652.13
2023-05-18T14:54:28.077Z,615.05
2023-05-18T14:56:55.666Z,632.80
2023-05-18T14:59:23.586Z,621.92
2023-05-18T15:01:50.684Z,615.47
2023-05-18T15:04:17.591Z,640.95
2023-05-18T15:06:44.326Z,612.67
2023-05-18T15:09:11.248Z,709.53
2023-05-18T15:11:37.920Z,622.13
2023-05-18T15:14:04.615Z,612.88
2023-05-18T15:16:31.739Z,642.83
2023-05-18T15:18:58.512Z,611.85
2023-05-18T15:21:25.295Z,686.50
2023-05-18T15:23:51.867Z,606.08
2023-05-18T15:26:18.868Z,744.13
2023-05-18T15:28:47.256Z,607.47
2023-05-18T15:31:14.065Z,614.88
2023-05-18T15:33:43.448Z,603.63
2023-05-18T15:36:10.133Z,606.80
2023-05-18T15:38:37.192Z,617.83
2023-05-18T15:41:03.928Z,605.58
2023-05-18T15:43:31.037Z,628.92
2023-05-18T15:45:58.272Z,584.90
2023-05-18T15:48:24.980Z,622.15
2023-05-18T15:50:51.842Z,589.97
2023-05-18T15:53:18.502Z,639.70
2023-05-18T15:55:45.210Z,595.20
2023-05-18T15:58:13.441Z,783.75
2023-05-18T16:00:47.740Z,591.97
2023-05-18T16:03:14.459Z,642.00
2023-05-18T16:05:41.178Z,592.13
2023-05-18T16:08:07.901Z,616.72
2023-05-18T16:10:34.735Z,593.47
2023-05-18T16:13:06.199Z,640.85
2023-05-18T16:15:34.588Z,598.53
2023-05-18T16:18:01.706Z,593.00
2023-05-18T16:20:28.670Z,593.85
2023-05-18T16:22:55.633Z,605.63
2023-05-18T16:25:22.396Z,593.33
2023-05-18T16:27:50.690Z,652.53
2023-05-18T16:30:17.900Z,624.70
2023-05-18T16:32:44.984Z,579.35
2023-05-18T16:35:11.824Z,640.92
2023-05-18T16:37:38.918Z,583.22
2023-05-18T16:40:06.328Z,599.05
2023-05-18T16:42:33.047Z,598.25
2023-05-18T16:44:59.785Z,591.17
2023-05-18T16:47:27.561Z,624.22
2023-05-18T16:49:54.686Z,584.63
2023-05-18T16:52:21.538Z,733.30
2023-05-18T16:54:48.310Z,584.20
2023-05-18T16:57:15.594Z,602.65
2023-05-18T16:59:42.458Z,578.47
2023-05-18T17:02:13.132Z,592.83
2023-05-18T17:04:41.339Z,575.55
2023-05-18T17:07:09.895Z,586.85
2023-05-18T17:09:39.953Z,574.42
2023-05-18T17:12:07.643Z,584.90
2023-05-18T17:14:34.367Z,740.58
2023-05-18T17:17:01.220Z,586.63
2023-05-18T17:19:27.932Z,639.38
2023-05-18T17:21:54.705Z,579.00
2023-05-18T17:24:22.664Z,579.22
2023-05-18T17:26:49.377Z,601.92
2023-05-18T17:29:17.935Z,586.53
2023-05-18T17:31:45.972Z,607.47
2023-05-18T17:34:12.663Z,572.45
2023-05-18T17:36:39.343Z,619.15
2023-05-18T17:39:05.968Z,580.28
2023-05-18T17:41:33.132Z,598.75
2023-05-18T17:44:00.093Z,570.90
2023-05-18T17:46:26.919Z,587.03
2023-05-18T17:48:53.666Z,581.70
2023-05-18T17:51:20.385Z,574.08
2023-05-18T17:53:47.003Z,605.40
2023-05-18T17:56:14.053Z,701.65
2023-05-18T17:58:40.803Z,575.50
2023-05-18T18:01:07.856Z,599.55
2023-05-18T18:03:35.324Z,583.67
2023-05-18T18:06:01.967Z,572.03
2023-05-18T18:08:29.386Z,608.30
2023-05-18T18:10:56.518Z,576.53
2023-05-18T18:13:23.108Z,625.15
2023-05-18T18:15:50.002Z,573.72
2023-05-18T18:18:16.943Z,623.97
2023-05-18T18:20:44.042Z,713.75
2023-05-18T18:23:10.961Z,569.63
2023-05-18T18:25:37.716Z,675.42
2023-05-18T18:28:04.396Z,576.75
2023-05-18T18:30:31.203Z,587.05
2023-05-18T18:32:58.125Z,607.17
2023-05-18T18:35:25.051Z,572.55
2023-05-18T18:37:51.966Z,591.28
2023-05-18T18:40:18.583Z,634.35
2023-05-18T18:42:45.283Z,610.05
2023-05-18T18:45:11.992Z,647.65
2023-05-18T18:47:39.225Z,695.83
2023-05-18T18:50:07.222Z,603.20
2023-05-18T18:52:33.911Z,699.97
2023-05-18T18:55:00.813Z,564.28
2023-05-18T18:57:28.035Z,742.28
2023-05-18T18:59:55.465Z,737.22
2023-05-18T19:02:23.620Z,562.67
2023-05-18T19:04:50.450Z,574.60
2023-05-18T19:07:17.117Z,561.92
2023-05-18T19:09:43.980Z,556.20
2023-05-18T19:12:10.732Z,578.95
2023-05-18T19:14:37.433Z,642.08
2023-05-18T19:17:04.250Z,592.30
2023-05-18T19:19:32.480Z,552.05
2023-05-18T19:21:59.179Z,596.67
2023-05-18T19:24:25.861Z,649.72
2023-05-18T19:26:52.708Z,547.78
2023-05-18T19:29:20.149Z,608.95
2023-05-18T19:31:47.129Z,556.42
2023-05-18T19:34:14.932Z,746.72
2023-05-18T19:36:42.659Z,551.08
2023-05-18T19:39:10.281Z,579.83
2023-05-18T19:41:37.210Z,562.15
2023-05-18T19:44:04.100Z,548.80
2023-05-18T19:46:31.007Z,572.25
2023-05-18T19:48:58.030Z,556.65
2023-05-18T19:51:25.598Z,590.75
2023-05-18T19:53:52.194Z,560.75
2023-05-18T19:56:18.802Z,553.97
2023-05-18T19:58:45.482Z,666.70
2023-05-18T20:01:12.052Z,554.97
2023-05-18T20:03:40.835Z,597.83
2023-05-18T20:06:09.830Z,539.90
2023-05-18T20:08:36.717Z,588.30
2023-05-18T20:11:03.448Z,537.47
2023-05-18T20:13:30.765Z,581.97
2023-05-18T20:16:03.507Z,589.53
2023-05-18T20:18:31.736Z,593.58
2023-05-18T20:20:58.305Z,540.70
2023-05-18T20:23:25.069Z,691.13
2023-05-18T20:25:51.742Z,542.20
2023-05-18T20:28:18.363Z,573.70
2023-05-18T20:30:45.043Z,546.47
2023-05-18T20:33:12.455Z,545.95
2023-05-18T20:35:39.691Z,545.17
2023-05-18T20:38:07.468Z,679.55
2023-05-18T20:40:37.831Z,543.20
2023-05-18T20:43:05.999Z,647.60
2023-05-18T20:45:32.617Z,545.05
2023-05-18T20:48:00.074Z,602.20
2023-05-18T20:50:27.045Z,585.58
2023-05-18T20:52:54.426Z,605.45
2023-05-18T20:55:21.230Z,666.75
2023-05-18T20:57:50.849Z,570.90
2023-05-18T21:00:18.322Z,619.65
2023-05-18T21:02:45.713Z,581.55
2023-05-18T21:05:13.271Z,699.33
2023-05-18T21:07:43.694Z,575.92
2023-05-18T21:10:11.168Z,709.70
2023-05-18T21:12:38.335Z,571.45
2023-05-18T21:15:05.415Z,728.05
2023-05-18T21:17:32.129Z,567.42
2023-05-18T21:19:58.942Z,597.53
2023-05-18T21:22:25.504Z,572.42
2023-05-18T21:24:52.629Z,791.53
2023-05-18T21:27:19.599Z,564.97
2023-05-18T21:29:46.372Z,580.13
2023-05-18T21:32:13.284Z,633.72
2023-05-18T21:34:42.720Z,694.53
2023-05-18T21:37:10.855Z,598.85
2023-05-18T21:39:38.166Z,617.00
2023-05-18T21:42:05.020Z,589.45
2023-05-18T21:44:32.612Z,646.30
2023-05-18T21:46:59.299Z,642.60
2023-05-18T21:49:26.003Z,569.97
2023-05-18T21:51:52.577Z,600.22
2023-05-18T21:54:19.409Z,568.28
2023-05-18T21:56:46.284Z,739.53
2023-05-18T21:59:12.952Z,605.45
2023-05-18T22:01:40.049Z,618.20
2023-05-18T22:04:06.933Z,561.05
2023-05-18T22:06:33.891Z,572.15
2023-05-18T22:09:00.585Z,590.15
2023-05-18T22:11:27.314Z,617.97
2023-05-18T22:13:54.304Z,568.13
2023-05-18T22:16:21.603Z,641.72
2023-05-18T22:18:48.236Z,568.17
2023-05-18T22:21:15.035Z,586.92
2023-05-18T22:23:42.206Z,571.20
2023-05-18T22:26:08.780Z,558.03
2023-05-18T22:28:35.609Z,654.20
2023-05-18T22:31:02.282Z,561.88
2023-05-18T22:33:28.831Z,613.47
2023-05-18T22:35:55.426Z,560.15
2023-05-18T22:38:22.053Z,599.25
2023-05-18T22:40:53.812Z,557.15
2023-05-18T22:43:21.356Z,594.70
2023-05-18T22:45:48.214Z,561.15
2023-05-18T22:48:15.089Z,602.60
2023-05-18T22:50:42.251Z,566.85
2023-05-18T22:53:10.291Z,575.13
2023-05-18T22:55:36.922Z,580.03
2023-05-18T22:58:03.773Z,570.53
2023-05-18T23:00:30.984Z,622.35
2023-05-18T23:02:58.529Z,564.70
2023-05-18T23:05:25.338Z,631.28
2023-05-18T23:07:52.163Z,564.75
2023-05-18T23:10:18.869Z,682.00
2023-05-18T23:12:48.298Z,562.15
2023-05-18T23:15:15.385Z,750.60
2023-05-18T23:17:42.167Z,565.35
2023-05-18T23:20:11.525Z,602.28
2023-05-18T23:22:38.181Z,575.45
2023-05-18T23:25:08.443Z,662.38
2023-05-18T23:27:35.330Z,579.60
2023-05-18T23:30:02.802Z,567.92
2023-05-18T23:32:29.748Z,564.45
2023-05-18T23:34:57.787Z,716.30
2023-05-18T23:37:26.074Z,551.75
2023-05-18T23:39:53.067Z,575.33
2023-05-18T23:42:20.553Z,547.63
2023-05-18T23:44:48.291Z,686.00
2023-05-18T23:47:16.254Z,583.67
2023-05-18T23:49:44.050Z,549.70
2023-05-18T23:52:11.435Z,695.92
2023-05-18T23:54:39.154Z,703.58
2023-05-18T23:57:06.148Z,560.75
2023-05-18T23:59:33.214Z,791.90
